createdAt,value
2023-04-18T00:02:04.367Z,7.93
2023-04-18T00:04:34.020Z,8.27
2023-04-18T00:07:02.061Z,7.47
2023-04-18T00:09:29.925Z,7.80
2023-04-18T00:11:57.720Z,9.10
2023-04-18T00:14:25.743Z,9.80
2023-04-18T00:16:54.957Z,8.85
2023-04-18T00:19:22.731Z,8.90
2023-04-18T00:21:53.114Z,9.07
2023-04-18T00:24:21.081Z,8.70
2023-04-18T00:26:49.197Z,9.00
2023-04-18T00:29:17.061Z,8.43
2023-04-18T00:31:44.898Z,8.60
2023-04-18T00:34:14.437Z,7.13
2023-04-18T00:36:42.451Z,8.95
2023-04-18T00:39:10.755Z,8.45
2023-04-18T00:41:38.544Z,7.32
2023-04-18T00:44:06.593Z,7.35
2023-04-18T00:46:34.462Z,7.60
2023-04-18T00:49:02.404Z,9.20
2023-04-18T00:51:32.100Z,8.30
2023-04-18T00:54:00.257Z,8.23
2023-04-18T00:56:28.508Z,8.63
2023-04-18T00:58:59.450Z,8.27
2023-04-18T01:01:27.458Z,7.72
2023-04-18T01:03:55.509Z,11.45
2023-04-18T01:06:23.660Z,9.48
2023-04-18T01:08:53.939Z,9.30
2023-04-18T01:11:21.904Z,9.82
2023-04-18T01:14:00.083Z,8.13
2023-04-18T01:16:29.703Z,8.85
2023-04-18T01:18:57.510Z,8.70
2023-04-18T01:21:26.932Z,7.95
2023-04-18T01:23:57.348Z,8.90
2023-04-18T01:26:26.968Z,9.20
2023-04-18T01:28:54.746Z,9.45
2023-04-18T01:31:22.678Z,8.10
2023-04-18T01:33:50.548Z,8.38
2023-04-18T01:36:18.426Z,8.27
2023-04-18T01:38:46.215Z,8.23
2023-04-18T01:41:14.171Z,8.20
2023-04-18T01:43:44.863Z,8.52
2023-04-18T01:46:12.854Z,8.13
2023-04-18T01:48:40.742Z,9.10
2023-04-18T01:51:08.610Z,8.75
2023-04-18T01:53:36.490Z,8.75
2023-04-18T01:56:04.443Z,9.23
2023-04-18T01:58:32.258Z,9.48
2023-04-18T02:01:01.588Z,8.48
2023-04-18T02:03:29.631Z,9.32
2023-04-18T02:05:57.723Z,8.32
2023-04-18T02:08:25.540Z,8.10
2023-04-18T02:10:53.413Z,8.75
2023-04-18T02:13:21.703Z,8.63
2023-04-18T02:15:49.568Z,7.93
2023-04-18T02:18:19.233Z,8.70
2023-04-18T02:20:47.752Z,8.15
2023-04-18T02:23:15.555Z,9.02
2023-04-18T02:25:43.558Z,8.27
2023-04-18T02:28:11.423Z,9.13
2023-04-18T02:30:39.378Z,7.72
2023-04-18T02:33:07.242Z,8.13
2023-04-18T02:35:38.279Z,8.95
2023-04-18T02:38:06.479Z,9.30
2023-04-18T02:40:34.292Z,9.77
2023-04-18T02:43:02.643Z,8.73
2023-04-18T02:45:30.454Z,7.35
2023-04-18T02:48:00.718Z,9.02
2023-04-18T02:50:29.089Z,8.27
2023-04-18T02:53:00.018Z,7.55
2023-04-18T02:55:38.274Z,8.60
2023-04-18T02:58:06.343Z,7.88
2023-04-18T03:00:37.068Z,8.82
2023-04-18T03:03:19.636Z,8.23
2023-04-18T03:05:56.337Z,7.60
2023-04-18T03:08:26.068Z,8.07
2023-04-18T03:10:56.317Z,8.23
2023-04-18T03:13:25.968Z,9.20
2023-04-18T03:15:53.982Z,7.90
2023-04-18T03:18:21.806Z,8.88
2023-04-18T03:20:50.760Z,9.20
2023-04-18T03:23:18.647Z,8.15
2023-04-18T03:25:48.359Z,8.73
2023-04-18T03:28:16.450Z,9.18
2023-04-18T03:30:44.291Z,8.23
2023-04-18T03:33:13.267Z,7.35
2023-04-18T03:35:41.705Z,8.38
2023-04-18T03:38:09.747Z,8.63
2023-04-18T03:40:40.353Z,8.52
2023-04-18T03:43:17.078Z,8.73
2023-04-18T03:45:47.233Z,10.13
2023-04-18T03:48:16.862Z,8.05
2023-04-18T03:50:46.530Z,9.52
2023-04-18T03:53:14.421Z,9.15
2023-04-18T03:55:43.383Z,8.52
2023-04-18T03:58:13.349Z,8.48
2023-04-18T04:00:42.886Z,8.57
2023-04-18T04:03:12.182Z,8.65
2023-04-18T04:05:41.140Z,7.80
2023-04-18T04:08:09.005Z,8.07
2023-04-18T04:10:37.124Z,8.32
2023-04-18T04:13:05.053Z,9.25
2023-04-18T04:15:37.349Z,8.00
2023-04-18T04:18:09.118Z,8.00
2023-04-18T04:20:40.224Z,8.45
2023-04-18T04:23:15.165Z,8.00
2023-04-18T04:25:46.514Z,8.82
2023-04-18T04:28:26.221Z,8.00
2023-04-18T04:30:59.988Z,8.30
2023-04-18T04:33:29.904Z,9.18
2023-04-18T04:36:02.214Z,8.30
2023-04-18T04:38:33.236Z,7.63
2023-04-18T04:41:01.522Z,8.00
2023-04-18T04:43:30.807Z,8.20
2023-04-18T04:45:59.057Z,8.02
2023-04-18T04:48:27.077Z,7.28
2023-04-18T04:50:57.983Z,8.48
2023-04-18T04:53:27.958Z,7.47
2023-04-18T04:55:55.932Z,7.63
2023-04-18T04:58:24.188Z,8.90
2023-04-18T05:01:03.066Z,8.05
2023-04-18T05:03:33.179Z,7.80
2023-04-18T05:06:02.579Z,8.02
2023-04-18T05:08:30.409Z,8.30
2023-04-18T05:10:58.216Z,7.53
2023-04-18T05:13:25.970Z,6.60
2023-04-18T05:15:53.812Z,8.90
2023-04-18T05:18:21.871Z,8.57
2023-04-18T05:20:49.674Z,8.63
2023-04-18T05:23:18.794Z,8.27
2023-04-18T05:25:46.646Z,9.00
2023-04-18T05:28:14.497Z,8.40
2023-04-18T05:30:42.382Z,9.90
2023-04-18T05:33:10.413Z,9.48
2023-04-18T05:35:38.308Z,8.20
2023-04-18T05:38:06.302Z,9.05
2023-04-18T05:40:35.557Z,8.30
2023-04-18T05:43:03.414Z,8.20
2023-04-18T05:45:31.376Z,9.50
2023-04-18T05:47:59.335Z,10.30
2023-04-18T05:50:27.237Z,7.78
2023-04-18T05:52:55.032Z,9.10
2023-04-18T05:55:22.858Z,10.27
2023-04-18T05:57:52.106Z,9.07
2023-04-18T06:00:20.726Z,9.27
2023-04-18T06:02:49.674Z,10.02
2023-04-18T06:05:18.127Z,10.35
2023-04-18T06:07:46.030Z,11.43
2023-04-18T06:10:13.885Z,9.27
2023-04-18T06:12:41.728Z,9.57
2023-04-18T06:15:12.490Z,8.70
2023-04-18T06:17:40.453Z,9.40
2023-04-18T06:20:09.042Z,8.43
2023-04-18T06:22:36.896Z,9.13
2023-04-18T06:25:05.017Z,8.50
2023-04-18T06:27:32.834Z,10.32
2023-04-18T06:30:00.627Z,9.75
2023-04-18T06:32:29.940Z,10.45
2023-04-18T06:34:57.885Z,10.50
2023-04-18T06:37:25.892Z,9.35
2023-04-18T06:39:53.841Z,9.07
2023-04-18T06:42:22.668Z,8.88
2023-04-18T06:44:50.778Z,8.88
2023-04-18T06:47:18.771Z,8.90
2023-04-18T06:49:48.187Z,9.63
2023-04-18T06:52:16.112Z,8.90
2023-04-18T06:54:43.963Z,9.75
2023-04-18T06:57:12.055Z,8.43
2023-04-18T06:59:41.327Z,8.40
2023-04-18T07:02:09.676Z,9.00
2023-04-18T07:04:37.558Z,8.60
2023-04-18T07:07:06.778Z,8.55
2023-04-18T07:09:34.611Z,8.32
2023-04-18T07:12:02.595Z,8.32
2023-04-18T07:14:31.746Z,7.88
2023-04-18T07:17:01.688Z,7.07
2023-04-18T07:19:29.571Z,7.20
2023-04-18T07:21:57.770Z,7.97
2023-04-18T07:24:27.042Z,7.53
2023-04-18T07:26:55.282Z,7.22
2023-04-18T07:29:23.268Z,8.48
2023-04-18T07:31:51.202Z,7.32
2023-04-18T07:34:19.050Z,7.28
2023-04-18T07:36:46.917Z,7.22
2023-04-18T07:39:14.814Z,8.23
2023-04-18T07:41:44.101Z,8.18
2023-04-18T07:44:11.976Z,7.00
2023-04-18T07:46:40.202Z,7.72
2023-04-18T07:49:08.111Z,6.85
2023-04-18T07:51:36.030Z,7.93
2023-04-18T07:54:03.944Z,7.05
2023-04-18T07:56:31.834Z,7.03
2023-04-18T07:59:01.696Z,7.78
2023-04-18T08:01:29.596Z,7.63
2023-04-18T08:04:02.039Z,7.40
2023-04-18T08:06:30.878Z,8.25
2023-04-18T08:09:03.134Z,8.13
2023-04-18T08:11:31.249Z,6.68
2023-04-18T08:13:59.238Z,8.40
2023-04-18T08:16:29.494Z,8.00
2023-04-18T08:18:57.410Z,7.43
2023-04-18T08:21:26.841Z,8.38
2023-04-18T08:23:54.763Z,7.90
2023-04-18T08:26:22.929Z,7.38
2023-04-18T08:28:51.152Z,8.23
2023-04-18T08:31:19.230Z,8.70
2023-04-18T08:33:48.631Z,8.48
2023-04-18T08:36:16.654Z,8.48
2023-04-18T08:38:44.555Z,8.57
2023-04-18T08:41:12.701Z,8.05
2023-04-18T08:43:40.642Z,8.27
2023-04-18T08:46:09.137Z,7.95
2023-04-18T08:48:37.288Z,8.63
2023-04-18T08:51:07.037Z,8.88
2023-04-18T08:53:35.257Z,10.07
2023-04-18T08:56:05.411Z,7.97
2023-04-18T08:58:34.809Z,8.88
2023-04-18T09:01:03.022Z,8.50
2023-04-18T09:03:39.804Z,8.55
2023-04-18T09:06:12.516Z,8.00
2023-04-18T09:08:43.246Z,7.43
2023-04-18T09:11:28.915Z,7.82
2023-04-18T09:13:59.639Z,8.20
2023-04-18T09:16:29.318Z,8.93
2023-04-18T09:19:14.297Z,8.38
2023-04-18T09:21:46.251Z,6.97
2023-04-18T09:24:24.441Z,8.52
2023-04-18T09:26:53.859Z,7.50
2023-04-18T09:29:23.510Z,9.45
2023-04-18T09:32:01.113Z,9.35
2023-04-18T09:34:30.141Z,9.35
2023-04-18T09:37:10.265Z,9.85
2023-04-18T09:39:39.465Z,8.90
2023-04-18T09:42:07.926Z,10.60
2023-04-18T09:44:35.987Z,9.48
2023-04-18T09:47:03.870Z,10.07
2023-04-18T09:49:31.877Z,10.57
2023-04-18T09:52:02.605Z,9.02
2023-04-18T09:54:34.054Z,9.82
2023-04-18T09:57:04.931Z,10.38
2023-04-18T09:59:42.590Z,11.00
2023-04-18T10:02:16.885Z,10.20
2023-04-18T10:04:47.645Z,10.57
2023-04-18T10:07:17.438Z,11.88
2023-04-18T10:09:48.282Z,10.30
2023-04-18T10:12:18.146Z,11.52
2023-04-18T10:14:46.521Z,10.20
2023-04-18T10:17:15.622Z,11.23
2023-04-18T10:19:46.132Z,10.70
2023-04-18T10:22:14.250Z,9.80
2023-04-18T10:24:53.735Z,9.05
2023-04-18T10:27:59.472Z,10.57
2023-04-18T10:30:53.555Z,9.98
2023-04-18T10:33:30.451Z,10.05
2023-04-18T10:36:16.146Z,10.25
2023-04-18T10:38:49.639Z,11.30
2023-04-18T10:41:27.534Z,10.00
2023-04-18T10:44:23.816Z,11.85
2023-04-18T10:47:32.018Z,9.30
2023-04-18T10:50:06.256Z,9.57
2023-04-18T10:52:35.680Z,10.75
2023-04-18T10:55:16.469Z,8.70
2023-04-18T10:57:47.590Z,10.48
2023-04-18T11:00:18.495Z,9.50
2023-04-18T11:02:51.721Z,10.13
2023-04-18T11:05:21.724Z,10.73
2023-04-18T11:07:49.787Z,10.07
2023-04-18T11:10:20.183Z,10.20
2023-04-18T11:12:49.615Z,9.15
2023-04-18T11:15:21.660Z,9.00
2023-04-18T11:18:01.525Z,11.50
2023-04-18T11:20:29.923Z,9.55
2023-04-18T11:22:59.818Z,10.60
2023-04-18T11:25:29.536Z,8.85
2023-04-18T11:28:02.020Z,8.68
2023-04-18T11:30:36.971Z,8.80
2023-04-18T11:33:07.462Z,8.13
2023-04-18T11:35:39.590Z,9.80
2023-04-18T11:38:07.806Z,11.27
2023-04-18T11:40:36.563Z,10.25
2023-04-18T11:43:08.064Z,10.00
2023-04-18T11:45:36.117Z,8.82
2023-04-18T11:48:04.316Z,9.13
2023-04-18T11:50:36.987Z,9.50
2023-04-18T11:53:04.897Z,8.73
2023-04-18T11:55:33.190Z,9.10
2023-04-18T11:58:05.226Z,9.82
2023-04-18T12:00:37.099Z,10.90
2023-04-18T12:03:07.886Z,9.17
2023-04-18T12:05:38.303Z,10.25
2023-04-18T12:08:08.321Z,10.02
2023-04-18T12:10:36.994Z,9.82
2023-04-18T12:13:08.024Z,9.40
2023-04-18T12:15:40.380Z,10.48
2023-04-18T12:18:09.538Z,8.35
2023-04-18T12:20:38.889Z,9.07
2023-04-18T12:23:08.013Z,10.30
2023-04-18T12:25:36.530Z,9.80
2023-04-18T12:28:14.416Z,9.35
2023-04-18T12:30:43.787Z,9.23
2023-04-18T12:33:12.541Z,8.48
2023-04-18T12:35:40.628Z,10.80
2023-04-18T12:38:08.507Z,9.38
2023-04-18T12:40:36.421Z,9.30
2023-04-18T12:43:04.329Z,9.65
2023-04-18T12:45:32.279Z,10.77
2023-04-18T12:48:01.676Z,9.80
2023-04-18T12:50:29.834Z,10.80
2023-04-18T12:53:00.448Z,10.35
2023-04-18T12:55:28.904Z,10.48
2023-04-18T12:57:58.093Z,10.52
2023-04-18T13:00:27.837Z,11.23
2023-04-18T13:02:55.860Z,11.98
2023-04-18T13:05:28.673Z,10.85
2023-04-18T13:08:15.209Z,12.05
2023-04-18T13:10:44.699Z,11.50
2023-04-18T13:13:12.652Z,10.25
2023-04-18T13:15:40.647Z,10.93
2023-04-18T13:18:08.824Z,11.35
2023-04-18T13:20:38.293Z,12.23
2023-04-18T13:23:06.290Z,10.07
2023-04-18T13:25:34.276Z,11.27
2023-04-18T13:28:02.234Z,11.48
2023-04-18T13:30:30.188Z,10.90
2023-04-18T13:32:58.399Z,11.18
2023-04-18T13:35:26.453Z,10.88
2023-04-18T13:37:56.096Z,11.27
2023-04-18T13:40:24.298Z,11.15
2023-04-18T13:42:52.506Z,10.30
2023-04-18T13:45:20.537Z,11.10
2023-04-18T13:47:48.568Z,10.95
2023-04-18T13:50:16.496Z,12.35
2023-04-18T13:52:44.704Z,10.23
2023-04-18T13:55:14.012Z,11.45
2023-04-18T13:57:41.934Z,10.65
2023-04-18T14:00:13.777Z,10.13
2023-04-18T14:02:41.969Z,10.57
2023-04-18T14:05:10.765Z,9.90
2023-04-18T14:07:39.318Z,9.65
2023-04-18T14:10:08.389Z,9.40
2023-04-18T14:12:37.770Z,11.00
2023-04-18T14:15:06.912Z,10.88
2023-04-18T14:17:35.111Z,8.95
2023-04-18T14:20:03.394Z,10.38
2023-04-18T14:22:31.451Z,10.65
2023-04-18T14:24:59.362Z,9.77
2023-04-18T14:27:27.777Z,10.02
2023-04-18T14:29:57.077Z,9.90
2023-04-18T14:32:25.255Z,8.52
2023-04-18T14:34:53.477Z,10.23
2023-04-18T14:37:22.300Z,10.05
2023-04-18T14:39:50.637Z,10.27
2023-04-18T14:42:18.992Z,9.18
2023-04-18T14:44:48.082Z,9.60
2023-04-18T14:47:17.636Z,9.80
2023-04-18T14:49:45.572Z,9.60
2023-04-18T14:52:14.404Z,8.88
2023-04-18T14:54:44.351Z,10.18
2023-04-18T14:57:12.951Z,8.98
2023-04-18T14:59:40.900Z,8.00
2023-04-18T15:02:09.045Z,7.75
2023-04-18T15:04:38.514Z,8.98
2023-04-18T15:07:06.939Z,9.10
2023-04-18T15:09:37.407Z,7.97
2023-04-18T15:12:06.241Z,9.25
2023-04-18T15:14:34.967Z,7.65
2023-04-18T15:17:03.280Z,8.52
2023-04-18T15:19:32.434Z,9.38
2023-04-18T15:22:03.950Z,8.75
2023-04-18T15:24:31.955Z,8.07
2023-04-18T15:27:00.043Z,7.82
2023-04-18T15:29:28.068Z,7.55
2023-04-18T15:31:56.130Z,10.02
2023-04-18T15:34:24.116Z,8.20
2023-04-18T15:36:52.001Z,8.35
2023-04-18T15:39:23.653Z,8.73
2023-04-18T15:41:54.233Z,8.20
2023-04-18T15:44:22.263Z,9.20
2023-04-18T15:46:51.083Z,7.70
2023-04-18T15:49:19.058Z,7.72
2023-04-18T15:51:47.086Z,8.77
2023-04-18T15:54:15.329Z,9.60
2023-04-18T15:56:45.034Z,8.93
2023-04-18T15:59:13.691Z,8.50
2023-04-18T16:01:43.335Z,8.10
2023-04-18T16:04:13.425Z,7.68
2023-04-18T16:06:41.527Z,8.10
2023-04-18T16:09:09.891Z,9.02
2023-04-18T16:11:37.790Z,8.13
2023-04-18T16:14:07.108Z,8.38
2023-04-18T16:16:35.385Z,9.27
2023-04-18T16:19:04.492Z,11.85
2023-04-18T16:21:32.552Z,9.18
2023-04-18T16:24:00.489Z,9.85
2023-04-18T16:26:28.942Z,10.18
2023-04-18T16:28:57.026Z,10.45
2023-04-18T16:31:26.419Z,10.65
2023-04-18T16:33:54.416Z,10.90
2023-04-18T16:36:22.377Z,8.95
2023-04-18T16:38:50.488Z,10.52
2023-04-18T16:41:18.459Z,9.48
2023-04-18T16:43:46.523Z,9.45
2023-04-18T16:46:14.792Z,8.80
2023-04-18T16:48:45.226Z,10.27
2023-04-18T16:51:13.190Z,10.05
2023-04-18T16:53:41.133Z,9.80
2023-04-18T16:56:09.221Z,9.43
2023-04-18T16:58:37.087Z,9.32
2023-04-18T17:01:05.330Z,10.55
2023-04-18T17:03:33.476Z,9.27
2023-04-18T17:06:03.010Z,9.98
2023-04-18T17:08:32.870Z,9.70
2023-04-18T17:11:02.261Z,10.38
2023-04-18T17:13:31.488Z,8.82
2023-04-18T17:15:59.557Z,9.30
2023-04-18T17:18:27.480Z,10.02
2023-04-18T17:20:55.393Z,9.75
2023-04-18T17:23:24.758Z,10.88
2023-04-18T17:25:52.799Z,9.98
2023-04-18T17:28:21.240Z,9.93
2023-04-18T17:30:50.263Z,10.23
2023-04-18T17:33:18.264Z,10.35
2023-04-18T17:35:46.221Z,10.00
2023-04-18T17:38:14.254Z,10.90
2023-04-18T17:40:43.579Z,10.70
2023-04-18T17:43:12.256Z,10.15
2023-04-18T17:45:40.440Z,9.90
2023-04-18T17:48:08.382Z,10.25
2023-04-18T17:50:38.033Z,9.93
2023-04-18T17:53:06.155Z,10.20
2023-04-18T17:55:34.070Z,9.65
2023-04-18T17:58:03.353Z,10.60
2023-04-18T18:00:31.766Z,10.88
2023-04-18T18:03:01.398Z,11.38
2023-04-18T18:05:30.213Z,10.63
2023-04-18T18:07:58.604Z,11.13
2023-04-18T18:10:27.020Z,10.40
2023-04-18T18:12:54.960Z,11.65
2023-04-18T18:15:25.289Z,10.93
2023-04-18T18:17:53.362Z,9.57
2023-04-18T18:20:21.560Z,10.70
2023-04-18T18:22:49.760Z,10.25
2023-04-18T18:25:17.782Z,11.38
2023-04-18T18:27:45.766Z,9.73
2023-04-18T18:30:14.333Z,10.48
2023-04-18T18:32:43.889Z,9.45
2023-04-18T18:35:11.850Z,10.10
2023-04-18T18:37:40.864Z,9.77
2023-04-18T18:40:10.219Z,11.20
2023-04-18T18:42:38.094Z,9.50
2023-04-18T18:45:07.531Z,11.52
2023-04-18T18:47:37.477Z,11.77
2023-04-18T18:50:09.003Z,12.25
2023-04-18T18:52:36.970Z,12.18
2023-04-18T18:55:05.402Z,10.65
2023-04-18T18:57:34.285Z,10.50
2023-04-18T19:00:02.410Z,9.82
2023-04-18T19:02:30.576Z,11.15
2023-04-18T19:04:59.072Z,11.18
2023-04-18T19:07:29.947Z,11.38
2023-04-18T19:10:00.474Z,10.85
2023-04-18T19:12:29.143Z,12.23
2023-04-18T19:14:57.354Z,12.48
2023-04-18T19:17:25.757Z,9.95
2023-04-18T19:19:57.900Z,10.00
2023-04-18T19:22:25.947Z,11.05
2023-04-18T19:24:55.251Z,11.25
2023-04-18T19:27:24.018Z,11.40
2023-04-18T19:29:51.995Z,10.00
2023-04-18T19:32:20.565Z,9.60
2023-04-18T19:34:48.798Z,9.95
2023-04-18T19:37:16.884Z,9.55
2023-04-18T19:39:44.832Z,9.80
2023-04-18T19:42:14.288Z,12.48
2023-04-18T19:44:42.320Z,10.43
2023-04-18T19:47:10.242Z,9.38
2023-04-18T19:49:38.218Z,10.15
2023-04-18T19:52:06.543Z,10.30
2023-04-18T19:54:34.470Z,10.75
2023-04-18T19:57:04.582Z,11.95
2023-04-18T19:59:33.896Z,11.40
2023-04-18T20:02:05.087Z,10.70
2023-04-18T20:04:36.534Z,9.55
2023-04-18T20:07:04.718Z,9.93
2023-04-18T20:09:32.729Z,11.82
2023-04-18T20:12:01.942Z,13.07
2023-04-18T20:14:30.153Z,11.15
2023-04-18T20:16:59.427Z,10.18
2023-04-18T20:19:29.775Z,9.65
2023-04-18T20:21:57.785Z,10.90
2023-04-18T20:24:28.036Z,10.75
2023-04-18T20:26:57.205Z,10.60
2023-04-18T20:29:25.390Z,10.05
2023-04-18T20:31:53.371Z,10.02
2023-04-18T20:34:22.875Z,10.35
2023-04-18T20:36:52.474Z,10.63
2023-04-18T20:39:20.588Z,10.93
2023-04-18T20:41:51.515Z,10.80
2023-04-18T20:44:20.990Z,10.60
2023-04-18T20:46:49.011Z,9.82
2023-04-18T20:49:17.170Z,10.52
2023-04-18T20:51:46.574Z,10.85
2023-04-18T20:54:14.802Z,9.38
2023-04-18T20:56:42.985Z,9.75
2023-04-18T20:59:10.908Z,10.10
2023-04-18T21:01:38.860Z,9.73
2023-04-18T21:04:07.097Z,10.98
2023-04-18T21:06:35.068Z,10.52
2023-04-18T21:09:04.668Z,9.63
2023-04-18T21:11:32.657Z,9.35
2023-04-18T21:14:00.686Z,10.68
2023-04-18T21:16:28.687Z,9.77
2023-04-18T21:18:56.620Z,10.57
2023-04-18T21:21:25.567Z,10.75
2023-04-18T21:23:53.540Z,10.30
2023-04-18T21:26:23.304Z,10.32
2023-04-18T21:28:58.199Z,10.27
2023-04-18T21:31:27.154Z,10.30
2023-04-18T21:33:55.932Z,10.27
2023-04-18T21:36:26.406Z,10.10
2023-04-18T21:38:55.420Z,11.23
2023-04-18T21:41:25.280Z,9.63
2023-04-18T21:43:54.065Z,9.95
2023-04-18T21:46:22.134Z,9.90
2023-04-18T21:48:50.268Z,9.63
2023-04-18T21:51:18.416Z,9.68
2023-04-18T21:53:46.396Z,9.68
2023-04-18T21:56:14.333Z,10.40
2023-04-18T21:58:43.663Z,10.52
2023-04-18T22:01:11.890Z,10.60
2023-04-18T22:03:40.195Z,10.77
2023-04-18T22:06:08.662Z,10.30
2023-04-18T22:08:36.818Z,10.48
2023-04-18T22:11:05.131Z,9.77
2023-04-18T22:13:33.941Z,10.15
2023-04-18T22:16:04.053Z,9.18
2023-04-18T22:18:34.047Z,10.27
2023-04-18T22:21:02.381Z,10.25
2023-04-18T22:23:31.129Z,9.90
2023-04-18T22:25:59.186Z,11.20
2023-04-18T22:28:27.994Z,10.13
2023-04-18T22:30:56.191Z,10.13
2023-04-18T22:33:25.637Z,9.60
2023-04-18T22:35:54.202Z,10.85
2023-04-18T22:38:22.179Z,11.95
2023-04-18T22:40:50.123Z,11.70
2023-04-18T22:43:22.502Z,9.77
2023-04-18T22:45:50.964Z,11.85
2023-04-18T22:48:19.620Z,11.45
2023-04-18T22:50:49.724Z,10.75
2023-04-18T22:53:17.893Z,11.27
2023-04-18T22:55:46.248Z,10.43
2023-04-18T22:58:15.066Z,10.02
2023-04-18T23:00:43.946Z,11.27
2023-04-18T23:03:12.025Z,11.27
2023-04-18T23:05:41.025Z,10.90
2023-04-18T23:08:11.852Z,10.35
2023-04-18T23:10:39.961Z,10.57
2023-04-18T23:13:08.321Z,10.40
2023-04-18T23:15:36.597Z,9.93
2023-04-18T23:18:05.018Z,11.05
2023-04-18T23:20:33.162Z,12.35
2023-04-18T23:23:01.361Z,11.18
2023-04-18T23:25:33.408Z,11.40
2023-04-18T23:28:02.158Z,11.82
2023-04-18T23:30:30.232Z,10.88
2023-04-18T23:32:58.793Z,10.55
2023-04-18T23:35:27.155Z,10.55
2023-04-18T23:37:57.123Z,10.57
2023-04-18T23:40:25.455Z,10.50
2023-04-18T23:42:55.203Z,10.43
2023-04-18T23:45:24.315Z,12.65
2023-04-18T23:47:52.456Z,11.40
2023-04-18T23:50:21.438Z,10.48
2023-04-18T23:52:49.309Z,11.07
2023-04-18T23:55:19.263Z,10.25
2023-04-18T23:57:48.671Z,11.48
